メインページ
METAR-TAF:

METAR-TAF

空港 :

アネイチュム島, バヌアツ

緯度: 20-14-57S, 経度: 169-46-17E, 海抜: 2m

現時点の気象観測

当レポートは59分前の09:00(UTC)に作成
東/北東の風 8kt
気温 24°C
湿度 89%
気圧 1014 hPa
視程10km以上
高度2000ftの雲は散在している
高度4000ftの千切れ雲あり

METAR: NVVA 220900Z 07008KT 9999 SCT020 BKN040 24/22 Q1014 RMK RESH

時間: 20:59 (09:59 UTC)

予報

当レポートは5時間29分前の04:30(UTC)に作成
予報は22日の 06時(UTC)から 23日の 06時(UTC)まで有効
の風 14kt
視程: 9000m
高度2000ftの雲は散在している
高度4000ftの千切れ雲あり
高度1800ftの千切れ雲あり
にわか雨
22日の 07時(UTC)から 22日の 09時(UTC)まで徐々に
の風 8kt

TAF: NVVA 220430Z 2206/2306 10014KT 9999 SCT020 BKN040 INTER 2206/2212 9000 SHRA BKN018 BECMG 2207/2209 09008KT

4,000以上の空港の気象観測と天気予報(METAR報とTAF報)

利用可能な観測所は地図上に黄色い丸と赤い丸で示す。

丸の上にカーソルを重ねると観測所名を参照できる。

次にクリックすると気象観測と天気予報を参照できる。

マップの切り替え:黒色「×」印の緑ボタンをクリックして拡大、「-」印の緑ボタンをクリックして縮小、緑色の三角印をクリックして隣りの地図に切り替え


METAR-TAF: